Terminal Aerodrome Forecast
Issued by NWS Cleveland, OH

Home | Current Version | Previous Version | Graphics & Text | Print | Product List | Glossary On
Versions: 1 2 3 4 5 6 7 8 9 10 11 12 13 14
000
FTUS41 KCLE 211100
TAFTOL
TAF
KTOL 211136Z 2112/2212 32005KT P6SM SCT060 OVC100
     FM211400 28010KT P6SM SCT060 BKN120
     FM212300 26007KT P6SM FEW060=

USA.gov is the U.S. government's official web portal to all federal, state and local government web resources and services.